Pagina principală
METAR-TAF:

METAR-TAF

Aeroporturi :

Hagåtña, Guam, Statele Unite ale Americii

Latitudine: 13-29N, longitudine: 144-48E, elevație: 91 m

Observații meteo curente

Raportul a fost făcut în urmă cu 1 oră și 37 de minute, la 23:54 UTC
Vânt 15 kt de la Est/Sud-est cu rafale de până la 22 kt
Temperatură 29°C
Umiditate 74%
Presiune 1011 hPa
Vizibilitate: 16.1 km
Nori puțini la o înălțime de 2100 picior

METAR: PGUM 092354Z 11015G22KT 10SM FEW021 29/24 A2984 RMK AO2 SLP097 T02940239 10300 20272 51010 $

Ora: 11:31 (01:31 UTC)

Prognoză

Raportul a fost făcut în urmă cu 2 ore și 9 de minute, la 23:22 UTC
Prognoză valabilă de la 10 ora 00 UTC la 11 ora 06 UTC
Vânt 15 kt de la Est
Vizibilitate: 10 km
Nori puțini la o înălțime de 2000 picior
Nori împrăștiați la o înălțime de 5000 picior
averse în apropiere

TAF: PGUM 092322Z 1000/1106 09015KT P6SM VCSH FEW020 SCT050

Observații și prognoze meteo pentru peste 4.000 de aeroporturi (rapoarte METAR și TAF).

Stațiile disponibile sunt reprezentate pe hartă prin puncte galbene și roșii.

Țineți indicatorul mouse-ului pe punctul dorit pentru a vedea denumirea stației.

Apoi, faceți clic pentru a vedea observațiile și prognozele meteorologice.

Pentru a schimba harta: Pentru mărire, faceți clic pe butoanele verzi cu cruce neagră; pentru micșorare, pe butonul verde cu o liniuță; pentru hărți învecinate, pe săgețile verzi.


METAR-TAF: